createdAt,value
2022-11-03T00:00:02.656Z,76.9
2022-11-03T00:15:03.241Z,76.6
2022-11-03T00:30:02.510Z,76.8
2022-11-03T00:45:02.980Z,76.1
2022-11-03T01:00:02.401Z,76.1
2022-11-03T01:15:02.831Z,75.9
2022-11-03T01:30:02.272Z,76.3
2022-11-03T01:45:02.703Z,76.5
2022-11-03T02:00:03.245Z,77.4
2022-11-03T02:15:02.576Z,78.3
2022-11-03T02:30:03.179Z,78.3
2022-11-03T02:45:02.454Z,78.4
2022-11-03T03:00:02.914Z,79.1
2022-11-03T03:15:02.343Z,79.0
2022-11-03T03:30:02.779Z,80.0
2022-11-03T03:45:03.289Z,80.3
2022-11-03T04:00:02.642Z,81.1
2022-11-03T04:15:03.294Z,81.0
2022-11-03T04:30:02.506Z,81.9
2022-11-03T04:45:02.965Z,82.6
2022-11-03T05:00:02.394Z,83.0
2022-11-03T05:15:02.844Z,84.0
2022-11-03T05:30:02.301Z,84.3
2022-11-03T05:45:02.696Z,84.0
2022-11-03T06:00:03.313Z,83.0
2022-11-03T06:15:02.604Z,82.1
2022-11-03T06:30:03.225Z,81.2
2022-11-03T06:45:02.487Z,80.7
2022-11-03T07:00:20.487Z,80.6
2022-11-03T07:30:02.792Z,80.2
2022-11-03T07:45:03.318Z,80.4
2022-11-03T08:00:05.470Z,80.2
2022-11-03T08:15:02.336Z,79.4
2022-11-03T08:30:02.552Z,79.2
2022-11-03T08:45:03.014Z,78.4
2022-11-03T09:00:02.445Z,76.7
2022-11-03T09:15:02.907Z,75.6
2022-11-03T09:30:13.296Z,73.8
2022-11-03T09:45:02.776Z,72.3
2022-11-03T10:00:03.359Z,70.9
2022-11-03T10:15:02.651Z,69.7
2022-11-03T10:30:03.101Z,69.8
2022-11-03T10:45:02.523Z,69.1
2022-11-03T11:00:02.955Z,69.7
2022-11-03T11:15:02.405Z,68.1
2022-11-03T11:30:02.839Z,66.7
2022-11-03T11:45:03.419Z,65.7
2022-11-03T12:00:02.752Z,66.3
2022-11-03T12:15:03.385Z,66.6
2022-11-03T12:30:02.581Z,67.1
2022-11-03T12:45:03.021Z,67.6
2022-11-03T13:00:02.442Z,69.5
2022-11-03T13:15:02.917Z,69.8
2022-11-03T13:30:02.400Z,68.0
2022-11-03T13:45:02.825Z,68.8
2022-11-03T14:00:05.057Z,69.3
2022-11-03T14:15:02.683Z,70.0
2022-11-03T14:30:03.123Z,70.6
2022-11-03T14:45:02.593Z,70.9
2022-11-03T15:00:03.001Z,71.3
2022-11-03T15:15:02.426Z,71.7
2022-11-03T15:30:02.968Z,72.3
2022-11-03T15:45:02.452Z,73.0
2022-11-03T16:00:02.840Z,73.4
2022-11-03T16:15:02.408Z,73.6
2022-11-03T16:30:02.630Z,73.9
2022-11-03T16:45:03.073Z,73.3
2022-11-03T17:00:02.533Z,73.8
2022-11-03T17:15:02.959Z,75.2
2022-11-03T17:30:02.442Z,76.2
2022-11-03T17:45:02.835Z,78.2
2022-11-03T18:00:03.456Z,79.7
2022-11-03T18:15:02.712Z,81.6
2022-11-03T18:30:03.163Z,83.0
2022-11-03T18:45:03.193Z,84.4
2022-11-03T19:00:03.031Z,85.0
2022-11-03T19:15:02.466Z,86.0
2022-11-03T19:30:02.889Z,86.2
2022-11-03T19:45:02.463Z,87.0
2022-11-03T20:00:02.757Z,87.2
2022-11-03T20:15:03.226Z,88.3
2022-11-03T20:30:02.651Z,88.8
2022-11-03T20:45:03.089Z,88.8
2022-11-03T21:00:02.535Z,89.1
2022-11-03T21:15:02.970Z,89.8
2022-11-03T21:30:02.498Z,90.3
2022-11-03T21:45:02.904Z,90.5
2022-11-03T22:00:02.615Z,91.1
2022-11-03T22:15:02.734Z,91.4
2022-11-03T22:30:02.150Z,91.8
2022-11-03T22:45:02.671Z,92.1
2022-11-03T23:00:03.030Z,92.2
2022-11-03T23:30:02.904Z,92.3
2022-11-03T23:45:02.520Z,92.4
